sensor_id;sensor_type;location;lat;lon;timestamp;temperature;humidity
51733;DHT22;39139;53.144;6.244;2022-11-22T00:01:33;3.50;99.90
51733;DHT22;39139;53.144;6.244;2022-11-22T00:03:58;3.60;99.90
51733;DHT22;39139;53.144;6.244;2022-11-22T00:06:24;3.50;99.90
51733;DHT22;39139;53.144;6.244;2022-11-22T00:08:50;3.50;99.90
51733;DHT22;39139;53.144;6.244;2022-11-22T00:11:15;3.50;99.90
51733;DHT22;39139;53.144;6.244;2022-11-22T00:13:41;3.60;99.90
51733;DHT22;39139;53.144;6.244;2022-11-22T00:16:07;3.60;99.90
51733;DHT22;39139;53.144;6.244;2022-11-22T00:18:32;3.50;99.90
51733;DHT22;39139;53.144;6.244;2022-11-22T00:21:06;3.50;99.90
51733;DHT22;39139;53.144;6.244;2022-11-22T00:23:32;3.50;99.90
51733;DHT22;39139;53.144;6.244;2022-11-22T00:25:58;3.50;99.90
51733;DHT22;39139;53.144;6.244;2022-11-22T00:28:23;3.50;99.90
51733;DHT22;39139;53.144;6.244;2022-11-22T00:30:49;3.30;99.90
51733;DHT22;39139;53.144;6.244;2022-11-22T00:33:14;3.40;99.90
51733;DHT22;39139;53.144;6.244;2022-11-22T00:35:40;3.40;99.90
51733;DHT22;39139;53.144;6.244;2022-11-22T00:38:06;3.30;99.90
51733;DHT22;39139;53.144;6.244;2022-11-22T00:40:31;3.30;99.90
51733;DHT22;39139;53.144;6.244;2022-11-22T00:42:57;3.40;99.90
51733;DHT22;39139;53.144;6.244;2022-11-22T00:45:22;3.40;99.90
51733;DHT22;39139;53.144;6.244;2022-11-22T00:47:48;3.80;99.90
51733;DHT22;39139;53.144;6.244;2022-11-22T00:50:14;3.30;99.90
51733;DHT22;39139;53.144;6.244;2022-11-22T00:52:39;3.30;99.90
51733;DHT22;39139;53.144;6.244;2022-11-22T00:55:05;3.40;99.90
51733;DHT22;39139;53.144;6.244;2022-11-22T00:57:31;3.50;99.90
51733;DHT22;39139;53.144;6.244;2022-11-22T00:59:57;3.30;99.90
51733;DHT22;39139;53.144;6.244;2022-11-22T01:02:22;3.50;99.90
51733;DHT22;39139;53.144;6.244;2022-11-22T01:04:48;3.50;99.90
51733;DHT22;39139;53.144;6.244;2022-11-22T01:07:13;3.30;99.90
51733;DHT22;39139;53.144;6.244;2022-11-22T01:09:39;3.40;99.90
51733;DHT22;39139;53.144;6.244;2022-11-22T01:12:05;3.30;99.90
51733;DHT22;39139;53.144;6.244;2022-11-22T01:14:31;3.40;99.90
51733;DHT22;39139;53.144;6.244;2022-11-22T01:16:56;3.50;99.90
51733;DHT22;39139;53.144;6.244;2022-11-22T01:19:22;3.40;99.90
51733;DHT22;39139;53.144;6.244;2022-11-22T01:21:48;3.40;99.90
51733;DHT22;39139;53.144;6.244;2022-11-22T01:24:13;3.40;99.90
51733;DHT22;39139;53.144;6.244;2022-11-22T01:26:39;3.40;99.90
51733;DHT22;39139;53.144;6.244;2022-11-22T01:29:05;3.50;99.90
51733;DHT22;39139;53.144;6.244;2022-11-22T01:31:30;3.50;99.90
51733;DHT22;39139;53.144;6.244;2022-11-22T01:33:57;3.50;99.90
51733;DHT22;39139;53.144;6.244;2022-11-22T01:36:23;3.50;99.90
51733;DHT22;39139;53.144;6.244;2022-11-22T01:38:49;3.30;99.90
51733;DHT22;39139;53.144;6.244;2022-11-22T01:44:28;3.30;99.90
51733;DHT22;39139;53.144;6.244;2022-11-22T01:46:59;3.30;99.90
51733;DHT22;39139;53.144;6.244;2022-11-22T01:49:35;3.40;99.90
51733;DHT22;39139;53.144;6.244;2022-11-22T01:52:06;3.30;99.90
51733;DHT22;39139;53.144;6.244;2022-11-22T01:54:36;3.20;99.90
51733;DHT22;39139;53.144;6.244;2022-11-22T01:57:06;3.30;99.90
51733;DHT22;39139;53.144;6.244;2022-11-22T01:59:32;3.40;99.90
51733;DHT22;39139;53.144;6.244;2022-11-22T02:02:01;3.20;99.90
51733;DHT22;39139;53.144;6.244;2022-11-22T02:04:27;3.10;99.90
51733;DHT22;39139;53.144;6.244;2022-11-22T02:07:06;3.40;99.90
51733;DHT22;39139;53.144;6.244;2022-11-22T02:09:33;3.30;99.90
51733;DHT22;39139;53.144;6.244;2022-11-22T02:12:01;3.20;99.90
51733;DHT22;39139;53.144;6.244;2022-11-22T02:14:28;3.10;99.90
51733;DHT22;39139;53.144;6.244;2022-11-22T02:16:55;3.20;99.90
51733;DHT22;39139;53.144;6.244;2022-11-22T02:19:42;3.10;99.90
51733;DHT22;39139;53.144;6.244;2022-11-22T02:22:30;3.20;99.90
51733;DHT22;39139;53.144;6.244;2022-11-22T02:25:03;3.10;99.90
51733;DHT22;39139;53.144;6.244;2022-11-22T02:27:31;3.20;99.90
51733;DHT22;39139;53.144;6.244;2022-11-22T02:29:57;3.20;99.90
51733;DHT22;39139;53.144;6.244;2022-11-22T02:32:22;3.10;99.90
51733;DHT22;39139;53.144;6.244;2022-11-22T02:34:49;3.60;99.90
51733;DHT22;39139;53.144;6.244;2022-11-22T02:37:21;3.10;99.90
51733;DHT22;39139;53.144;6.244;2022-11-22T02:39:51;3.30;99.90
51733;DHT22;39139;53.144;6.244;2022-11-22T02:42:20;3.20;99.90
51733;DHT22;39139;53.144;6.244;2022-11-22T02:44:46;3.30;99.90
51733;DHT22;39139;53.144;6.244;2022-11-22T02:47:11;3.40;99.90
51733;DHT22;39139;53.144;6.244;2022-11-22T02:49:37;3.20;99.90
51733;DHT22;39139;53.144;6.244;2022-11-22T02:52:03;3.30;99.90
51733;DHT22;39139;53.144;6.244;2022-11-22T02:54:29;3.20;99.90
51733;DHT22;39139;53.144;6.244;2022-11-22T02:56:54;3.30;99.90
51733;DHT22;39139;53.144;6.244;2022-11-22T02:59:20;3.30;99.90
51733;DHT22;39139;53.144;6.244;2022-11-22T03:01:46;3.30;99.90
51733;DHT22;39139;53.144;6.244;2022-11-22T03:04:12;3.20;99.90
51733;DHT22;39139;53.144;6.244;2022-11-22T03:06:54;3.50;99.90
51733;DHT22;39139;53.144;6.244;2022-11-22T03:09:20;3.40;99.90
51733;DHT22;39139;53.144;6.244;2022-11-22T03:11:46;3.40;99.90
51733;DHT22;39139;53.144;6.244;2022-11-22T03:14:15;3.40;99.90
51733;DHT22;39139;53.144;6.244;2022-11-22T03:16:42;3.50;99.90
51733;DHT22;39139;53.144;6.244;2022-11-22T03:19:08;3.50;99.90
51733;DHT22;39139;53.144;6.244;2022-11-22T03:21:34;3.60;99.90
51733;DHT22;39139;53.144;6.244;2022-11-22T03:24:00;3.50;99.90
51733;DHT22;39139;53.144;6.244;2022-11-22T03:26:25;3.70;99.90
51733;DHT22;39139;53.144;6.244;2022-11-22T03:28:51;3.50;99.90
51733;DHT22;39139;53.144;6.244;2022-11-22T03:31:17;3.70;99.90
51733;DHT22;39139;53.144;6.244;2022-11-22T03:33:42;3.70;99.90
51733;DHT22;39139;53.144;6.244;2022-11-22T03:36:08;3.50;99.90
51733;DHT22;39139;53.144;6.244;2022-11-22T03:38:34;3.50;99.90
51733;DHT22;39139;53.144;6.244;2022-11-22T03:41:00;3.80;99.90
51733;DHT22;39139;53.144;6.244;2022-11-22T03:43:25;3.60;99.90
51733;DHT22;39139;53.144;6.244;2022-11-22T03:45:51;3.80;99.90
51733;DHT22;39139;53.144;6.244;2022-11-22T03:48:17;3.70;99.90
51733;DHT22;39139;53.144;6.244;2022-11-22T03:50:43;3.70;99.90
51733;DHT22;39139;53.144;6.244;2022-11-22T03:53:08;3.70;99.90
51733;DHT22;39139;53.144;6.244;2022-11-22T03:55:34;3.80;99.90
51733;DHT22;39139;53.144;6.244;2022-11-22T03:58:00;3.90;99.90
51733;DHT22;39139;53.144;6.244;2022-11-22T04:00:25;3.90;99.90
51733;DHT22;39139;53.144;6.244;2022-11-22T04:02:51;3.70;99.90
51733;DHT22;39139;53.144;6.244;2022-11-22T04:05:17;3.90;99.90
51733;DHT22;39139;53.144;6.244;2022-11-22T04:07:42;4.50;99.90
51733;DHT22;39139;53.144;6.244;2022-11-22T04:10:08;3.90;99.90
51733;DHT22;39139;53.144;6.244;2022-11-22T04:12:34;3.90;99.90
51733;DHT22;39139;53.144;6.244;2022-11-22T04:15:00;4.00;99.90
51733;DHT22;39139;53.144;6.244;2022-11-22T04:17:37;3.90;99.90
51733;DHT22;39139;53.144;6.244;2022-11-22T04:20:07;4.00;99.90
51733;DHT22;39139;53.144;6.244;2022-11-22T04:22:56;3.90;99.90
51733;DHT22;39139;53.144;6.244;2022-11-22T04:25:26;3.90;99.90
51733;DHT22;39139;53.144;6.244;2022-11-22T04:27:52;4.00;99.90
51733;DHT22;39139;53.144;6.244;2022-11-22T04:30:17;4.20;99.90
51733;DHT22;39139;53.144;6.244;2022-11-22T04:32:43;4.00;99.90
51733;DHT22;39139;53.144;6.244;2022-11-22T04:35:16;4.10;99.90
51733;DHT22;39139;53.144;6.244;2022-11-22T04:37:49;4.00;99.90
51733;DHT22;39139;53.144;6.244;2022-11-22T04:40:15;4.10;99.90
51733;DHT22;39139;53.144;6.244;2022-11-22T04:42:41;3.90;99.90
51733;DHT22;39139;53.144;6.244;2022-11-22T04:45:25;4.10;99.90
51733;DHT22;39139;53.144;6.244;2022-11-22T04:47:50;4.00;99.90
51733;DHT22;39139;53.144;6.244;2022-11-22T04:50:27;3.90;99.90
51733;DHT22;39139;53.144;6.244;2022-11-22T04:53:12;4.20;99.90
51733;DHT22;39139;53.144;6.244;2022-11-22T04:55:38;4.00;99.90
51733;DHT22;39139;53.144;6.244;2022-11-22T04:58:04;4.20;99.90
51733;DHT22;39139;53.144;6.244;2022-11-22T05:00:30;4.00;99.90
51733;DHT22;39139;53.144;6.244;2022-11-22T05:02:56;4.20;99.90
51733;DHT22;39139;53.144;6.244;2022-11-22T05:05:23;4.20;99.90
51733;DHT22;39139;53.144;6.244;2022-11-22T05:07:49;4.10;99.90
51733;DHT22;39139;53.144;6.244;2022-11-22T05:10:15;4.10;99.90
51733;DHT22;39139;53.144;6.244;2022-11-22T05:12:41;4.10;99.90
51733;DHT22;39139;53.144;6.244;2022-11-22T05:15:08;4.10;99.90
51733;DHT22;39139;53.144;6.244;2022-11-22T05:17:34;4.20;99.90
51733;DHT22;39139;53.144;6.244;2022-11-22T05:20:00;4.40;99.90
51733;DHT22;39139;53.144;6.244;2022-11-22T05:22:26;4.40;99.90
51733;DHT22;39139;53.144;6.244;2022-11-22T05:25:11;4.20;99.90
51733;DHT22;39139;53.144;6.244;2022-11-22T05:27:37;4.20;99.90
51733;DHT22;39139;53.144;6.244;2022-11-22T05:30:04;4.40;99.90
51733;DHT22;39139;53.144;6.244;2022-11-22T05:32:31;4.40;99.90
51733;DHT22;39139;53.144;6.244;2022-11-22T05:34:57;4.50;99.90
51733;DHT22;39139;53.144;6.244;2022-11-22T05:37:23;4.50;99.90
51733;DHT22;39139;53.144;6.244;2022-11-22T05:39:49;4.40;99.90
51733;DHT22;39139;53.144;6.244;2022-11-22T05:42:14;4.50;99.90
51733;DHT22;39139;53.144;6.244;2022-11-22T05:44:40;4.40;99.90
51733;DHT22;39139;53.144;6.244;2022-11-22T05:47:05;4.40;99.90
51733;DHT22;39139;53.144;6.244;2022-11-22T05:49:31;4.40;99.90
51733;DHT22;39139;53.144;6.244;2022-11-22T05:51:57;4.30;99.90
51733;DHT22;39139;53.144;6.244;2022-11-22T05:54:23;4.40;99.90
51733;DHT22;39139;53.144;6.244;2022-11-22T05:56:49;4.40;99.90
51733;DHT22;39139;53.144;6.244;2022-11-22T05:59:14;4.80;99.90
51733;DHT22;39139;53.144;6.244;2022-11-22T06:01:40;4.70;99.90
51733;DHT22;39139;53.144;6.244;2022-11-22T06:04:06;4.70;99.90
51733;DHT22;39139;53.144;6.244;2022-11-22T06:06:31;4.70;99.90
51733;DHT22;39139;53.144;6.244;2022-11-22T06:08:58;4.60;99.90
51733;DHT22;39139;53.144;6.244;2022-11-22T06:11:25;4.40;99.90
51733;DHT22;39139;53.144;6.244;2022-11-22T06:13:57;4.50;99.90
51733;DHT22;39139;53.144;6.244;2022-11-22T06:16:23;4.80;99.90
51733;DHT22;39139;53.144;6.244;2022-11-22T06:18:49;4.70;99.90
51733;DHT22;39139;53.144;6.244;2022-11-22T06:21:20;4.70;99.90
51733;DHT22;39139;53.144;6.244;2022-11-22T06:23:53;4.60;99.90
51733;DHT22;39139;53.144;6.244;2022-11-22T06:26:19;4.80;99.90
51733;DHT22;39139;53.144;6.244;2022-11-22T06:28:46;4.50;99.90
51733;DHT22;39139;53.144;6.244;2022-11-22T06:31:14;4.80;99.90
51733;DHT22;39139;53.144;6.244;2022-11-22T06:33:41;4.50;99.90
51733;DHT22;39139;53.144;6.244;2022-11-22T06:36:15;4.60;99.90
51733;DHT22;39139;53.144;6.244;2022-11-22T06:38:42;4.60;99.90
51733;DHT22;39139;53.144;6.244;2022-11-22T06:41:10;4.70;99.90
51733;DHT22;39139;53.144;6.244;2022-11-22T06:43:37;4.70;99.90
51733;DHT22;39139;53.144;6.244;2022-11-22T06:46:04;4.60;99.90
51733;DHT22;39139;53.144;6.244;2022-11-22T06:48:32;4.70;99.90
51733;DHT22;39139;53.144;6.244;2022-11-22T06:51:02;4.90;99.90
51733;DHT22;39139;53.144;6.244;2022-11-22T06:53:29;5.00;99.90
51733;DHT22;39139;53.144;6.244;2022-11-22T06:56:20;4.70;99.90
51733;DHT22;39139;53.144;6.244;2022-11-22T06:58:47;5.00;99.90
51733;DHT22;39139;53.144;6.244;2022-11-22T07:01:18;5.00;99.90
51733;DHT22;39139;53.144;6.244;2022-11-22T07:03:44;4.90;99.90
51733;DHT22;39139;53.144;6.244;2022-11-22T07:06:11;5.00;99.90
51733;DHT22;39139;53.144;6.244;2022-11-22T07:08:39;5.20;99.90
51733;DHT22;39139;53.144;6.244;2022-11-22T07:11:11;5.20;99.90
51733;DHT22;39139;53.144;6.244;2022-11-22T07:13:37;5.20;99.90
51733;DHT22;39139;53.144;6.244;2022-11-22T07:16:05;5.20;99.90
51733;DHT22;39139;53.144;6.244;2022-11-22T07:18:31;5.10;99.90
51733;DHT22;39139;53.144;6.244;2022-11-22T07:21:01;5.40;99.90
51733;DHT22;39139;53.144;6.244;2022-11-22T07:23:27;5.10;99.90
51733;DHT22;39139;53.144;6.244;2022-11-22T07:25:53;5.20;99.90
51733;DHT22;39139;53.144;6.244;2022-11-22T07:28:19;5.20;99.90
51733;DHT22;39139;53.144;6.244;2022-11-22T07:30:44;5.20;99.90
51733;DHT22;39139;53.144;6.244;2022-11-22T07:33:10;5.30;99.90
51733;DHT22;39139;53.144;6.244;2022-11-22T07:35:36;5.10;99.90
51733;DHT22;39139;53.144;6.244;2022-11-22T07:38:02;5.20;99.90
51733;DHT22;39139;53.144;6.244;2022-11-22T07:40:28;5.30;99.90
51733;DHT22;39139;53.144;6.244;2022-11-22T07:42:54;5.20;99.90
51733;DHT22;39139;53.144;6.244;2022-11-22T07:45:19;5.30;99.90
51733;DHT22;39139;53.144;6.244;2022-11-22T07:47:45;5.10;99.90
51733;DHT22;39139;53.144;6.244;2022-11-22T07:50:10;5.20;99.90
51733;DHT22;39139;53.144;6.244;2022-11-22T07:52:37;5.30;99.90
51733;DHT22;39139;53.144;6.244;2022-11-22T07:55:03;5.10;99.90
51733;DHT22;39139;53.144;6.244;2022-11-22T07:57:30;5.10;99.90
51733;DHT22;39139;53.144;6.244;2022-11-22T07:59:56;5.10;99.90
51733;DHT22;39139;53.144;6.244;2022-11-22T08:02:23;5.20;99.90
51733;DHT22;39139;53.144;6.244;2022-11-22T08:04:48;5.10;99.90
51733;DHT22;39139;53.144;6.244;2022-11-22T08:07:14;5.20;99.90
51733;DHT22;39139;53.144;6.244;2022-11-22T08:09:39;5.00;99.90
51733;DHT22;39139;53.144;6.244;2022-11-22T08:12:05;5.00;99.90
51733;DHT22;39139;53.144;6.244;2022-11-22T08:14:31;5.10;99.90
51733;DHT22;39139;53.144;6.244;2022-11-22T08:16:56;5.10;99.90
51733;DHT22;39139;53.144;6.244;2022-11-22T08:19:22;5.20;99.90
51733;DHT22;39139;53.144;6.244;2022-11-22T08:21:48;5.00;99.90
51733;DHT22;39139;53.144;6.244;2022-11-22T08:24:14;5.10;99.90
51733;DHT22;39139;53.144;6.244;2022-11-22T08:26:40;5.30;99.90
51733;DHT22;39139;53.144;6.244;2022-11-22T08:29:09;5.10;99.90
51733;DHT22;39139;53.144;6.244;2022-11-22T08:31:35;5.20;99.90
51733;DHT22;39139;53.144;6.244;2022-11-22T08:34:01;5.10;99.90
51733;DHT22;39139;53.144;6.244;2022-11-22T08:36:27;5.10;99.90
51733;DHT22;39139;53.144;6.244;2022-11-22T08:38:53;5.20;99.90
51733;DHT22;39139;53.144;6.244;2022-11-22T08:41:19;5.10;99.90
51733;DHT22;39139;53.144;6.244;2022-11-22T08:43:44;5.20;99.90
51733;DHT22;39139;53.144;6.244;2022-11-22T08:46:10;5.30;99.90
51733;DHT22;39139;53.144;6.244;2022-11-22T08:48:37;5.50;99.90
51733;DHT22;39139;53.144;6.244;2022-11-22T08:51:08;5.30;99.90
51733;DHT22;39139;53.144;6.244;2022-11-22T08:53:36;5.20;99.90
51733;DHT22;39139;53.144;6.244;2022-11-22T08:56:04;5.10;99.90
51733;DHT22;39139;53.144;6.244;2022-11-22T08:58:31;5.20;99.90
51733;DHT22;39139;53.144;6.244;2022-11-22T09:01:06;5.20;99.90
51733;DHT22;39139;53.144;6.244;2022-11-22T09:03:36;5.10;99.90
51733;DHT22;39139;53.144;6.244;2022-11-22T09:06:06;5.10;99.90
51733;DHT22;39139;53.144;6.244;2022-11-22T09:08:32;5.10;99.90
51733;DHT22;39139;53.144;6.244;2022-11-22T09:11:10;5.10;99.90
51733;DHT22;39139;53.144;6.244;2022-11-22T09:13:36;5.10;99.90
51733;DHT22;39139;53.144;6.244;2022-11-22T09:16:10;5.10;99.90
51733;DHT22;39139;53.144;6.244;2022-11-22T09:18:36;5.30;99.90
51733;DHT22;39139;53.144;6.244;2022-11-22T09:21:07;5.20;99.90
51733;DHT22;39139;53.144;6.244;2022-11-22T09:23:33;5.30;99.90
51733;DHT22;39139;53.144;6.244;2022-11-22T09:26:02;5.30;99.90
51733;DHT22;39139;53.144;6.244;2022-11-22T09:28:29;5.30;99.90
51733;DHT22;39139;53.144;6.244;2022-11-22T09:31:03;5.20;99.90
51733;DHT22;39139;53.144;6.244;2022-11-22T09:33:30;5.20;99.90
51733;DHT22;39139;53.144;6.244;2022-11-22T09:36:10;5.30;99.90
51733;DHT22;39139;53.144;6.244;2022-11-22T09:38:37;4.90;99.90
51733;DHT22;39139;53.144;6.244;2022-11-22T09:57:48;5.20;99.90
51733;DHT22;39139;53.144;6.244;2022-11-22T10:00:21;5.30;99.90
51733;DHT22;39139;53.144;6.244;2022-11-22T10:03:18;5.30;99.90
51733;DHT22;39139;53.144;6.244;2022-11-22T10:05:52;5.30;99.90
51733;DHT22;39139;53.144;6.244;2022-11-22T10:08:28;5.30;99.90
51733;DHT22;39139;53.144;6.244;2022-11-22T10:10:59;5.40;99.90
51733;DHT22;39139;53.144;6.244;2022-11-22T10:13:34;5.40;99.90
51733;DHT22;39139;53.144;6.244;2022-11-22T10:16:29;5.60;99.90
51733;DHT22;39139;53.144;6.244;2022-11-22T10:19:00;5.50;99.90
51733;DHT22;39139;53.144;6.244;2022-11-22T10:21:27;5.50;99.90
51733;DHT22;39139;53.144;6.244;2022-11-22T10:23:52;5.60;99.90
51733;DHT22;39139;53.144;6.244;2022-11-22T10:26:31;5.60;99.90
51733;DHT22;39139;53.144;6.244;2022-11-22T10:29:18;5.60;99.90
51733;DHT22;39139;53.144;6.244;2022-11-22T10:32:11;5.70;99.90
51733;DHT22;39139;53.144;6.244;2022-11-22T10:42:54;5.90;99.90
51733;DHT22;39139;53.144;6.244;2022-11-22T10:45:36;6.00;99.90
51733;DHT22;39139;53.144;6.244;2022-11-22T11:04:36;6.00;99.90
51733;DHT22;39139;53.144;6.244;2022-11-22T11:07:03;6.00;99.90
51733;DHT22;39139;53.144;6.244;2022-11-22T11:12:19;6.10;99.90
51733;DHT22;39139;53.144;6.244;2022-11-22T11:14:49;6.10;99.90
51733;DHT22;39139;53.144;6.244;2022-11-22T11:17:25;6.10;99.90
51733;DHT22;39139;53.144;6.244;2022-11-22T11:19:54;6.20;99.90
51733;DHT22;39139;53.144;6.244;2022-11-22T11:22:23;6.20;99.90
51733;DHT22;39139;53.144;6.244;2022-11-22T11:24:50;6.30;99.90
51733;DHT22;39139;53.144;6.244;2022-11-22T11:27:18;6.30;99.90
51733;DHT22;39139;53.144;6.244;2022-11-22T11:29:59;6.50;99.90
51733;DHT22;39139;53.144;6.244;2022-11-22T11:32:26;6.60;99.90
51733;DHT22;39139;53.144;6.244;2022-11-22T11:34:59;6.70;99.90
51733;DHT22;39139;53.144;6.244;2022-11-22T11:37:36;6.80;99.90
51733;DHT22;39139;53.144;6.244;2022-11-22T11:40:04;7.00;99.90
51733;DHT22;39139;53.144;6.244;2022-11-22T11:42:31;7.10;99.90
51733;DHT22;39139;53.144;6.244;2022-11-22T11:45:26;7.40;99.90
51733;DHT22;39139;53.144;6.244;2022-11-22T11:47:53;8.00;99.90
51733;DHT22;39139;53.144;6.244;2022-11-22T11:50:23;8.20;99.90
51733;DHT22;39139;53.144;6.244;2022-11-22T11:52:55;8.20;99.90
51733;DHT22;39139;53.144;6.244;2022-11-22T11:55:21;8.10;99.90
51733;DHT22;39139;53.144;6.244;2022-11-22T11:57:48;7.90;99.90
51733;DHT22;39139;53.144;6.244;2022-11-22T12:00:23;7.80;99.90
51733;DHT22;39139;53.144;6.244;2022-11-22T12:02:59;7.80;99.90
51733;DHT22;39139;53.144;6.244;2022-11-22T12:05:29;7.60;99.90
51733;DHT22;39139;53.144;6.244;2022-11-22T12:07:55;7.50;99.90
51733;DHT22;39139;53.144;6.244;2022-11-22T12:18:32;7.30;99.90
51733;DHT22;39139;53.144;6.244;2022-11-22T12:21:21;7.40;99.90
51733;DHT22;39139;53.144;6.244;2022-11-22T12:23:55;7.50;99.90
51733;DHT22;39139;53.144;6.244;2022-11-22T12:26:21;7.40;99.90
51733;DHT22;39139;53.144;6.244;2022-11-22T12:28:47;7.40;99.90
51733;DHT22;39139;53.144;6.244;2022-11-22T12:31:24;7.30;99.90
51733;DHT22;39139;53.144;6.244;2022-11-22T12:33:55;7.20;99.90
51733;DHT22;39139;53.144;6.244;2022-11-22T12:36:37;7.20;99.90
51733;DHT22;39139;53.144;6.244;2022-11-22T12:39:07;7.20;99.90
51733;DHT22;39139;53.144;6.244;2022-11-22T12:41:36;7.20;99.90
51733;DHT22;39139;53.144;6.244;2022-11-22T12:44:05;7.40;99.90
51733;DHT22;39139;53.144;6.244;2022-11-22T12:47:05;7.10;99.90
51733;DHT22;39139;53.144;6.244;2022-11-22T12:49:49;7.10;99.90
51733;DHT22;39139;53.144;6.244;2022-11-22T12:52:36;7.10;99.90
51733;DHT22;39139;53.144;6.244;2022-11-22T12:55:16;7.10;99.90
51733;DHT22;39139;53.144;6.244;2022-11-22T13:00:34;7.10;99.90
51733;DHT22;39139;53.144;6.244;2022-11-22T13:05:39;7.00;99.90
51733;DHT22;39139;53.144;6.244;2022-11-22T13:08:24;6.90;99.90
51733;DHT22;39139;53.144;6.244;2022-11-22T13:14:05;7.00;99.90
51733;DHT22;39139;53.144;6.244;2022-11-22T13:16:29;7.00;99.90
51733;DHT22;39139;53.144;6.244;2022-11-22T13:19:03;7.00;99.90
51733;DHT22;39139;53.144;6.244;2022-11-22T13:21:49;7.00;99.90
51733;DHT22;39139;53.144;6.244;2022-11-22T13:27:36;7.00;99.90
51733;DHT22;39139;53.144;6.244;2022-11-22T13:30:03;7.00;99.90
51733;DHT22;39139;53.144;6.244;2022-11-22T13:32:31;8.10;99.90
51733;DHT22;39139;53.144;6.244;2022-11-22T13:37:59;6.90;99.90
51733;DHT22;39139;53.144;6.244;2022-11-22T13:40:30;7.00;99.90
51733;DHT22;39139;53.144;6.244;2022-11-22T13:45:50;6.90;99.90
51733;DHT22;39139;53.144;6.244;2022-11-22T13:51:11;6.90;99.90
51733;DHT22;39139;53.144;6.244;2022-11-22T13:53:39;6.90;99.90
51733;DHT22;39139;53.144;6.244;2022-11-22T14:06:49;6.90;99.90
51733;DHT22;39139;53.144;6.244;2022-11-22T14:09:43;6.90;99.90
51733;DHT22;39139;53.144;6.244;2022-11-22T14:14:48;6.90;99.90
51733;DHT22;39139;53.144;6.244;2022-11-22T14:26:16;6.90;99.90
51733;DHT22;39139;53.144;6.244;2022-11-22T14:31:37;6.90;99.90
51733;DHT22;39139;53.144;6.244;2022-11-22T14:37:46;6.90;99.90
51733;DHT22;39139;53.144;6.244;2022-11-22T14:40:14;6.80;99.90
51733;DHT22;39139;53.144;6.244;2022-11-22T14:42:45;6.90;99.90
51733;DHT22;39139;53.144;6.244;2022-11-22T14:50:28;6.80;99.90
51733;DHT22;39139;53.144;6.244;2022-11-22T14:52:57;6.80;99.90
51733;DHT22;39139;53.144;6.244;2022-11-22T14:55:28;6.80;99.90
51733;DHT22;39139;53.144;6.244;2022-11-22T14:58:01;6.80;99.90
51733;DHT22;39139;53.144;6.244;2022-11-22T15:16:56;6.80;99.90
51733;DHT22;39139;53.144;6.244;2022-11-22T15:19:36;6.80;99.90
51733;DHT22;39139;53.144;6.244;2022-11-22T15:22:10;6.80;99.90
51733;DHT22;39139;53.144;6.244;2022-11-22T15:24:40;6.80;99.90
51733;DHT22;39139;53.144;6.244;2022-11-22T15:27:18;6.80;99.90
51733;DHT22;39139;53.144;6.244;2022-11-22T15:29:44;6.90;99.90
51733;DHT22;39139;53.144;6.244;2022-11-22T15:32:15;6.70;99.90
51733;DHT22;39139;53.144;6.244;2022-11-22T15:34:44;6.70;99.90
51733;DHT22;39139;53.144;6.244;2022-11-22T15:37:32;6.70;99.90
51733;DHT22;39139;53.144;6.244;2022-11-22T15:40:12;6.70;99.90
51733;DHT22;39139;53.144;6.244;2022-11-22T15:42:49;6.70;99.90
51733;DHT22;39139;53.144;6.244;2022-11-22T15:45:15;6.70;99.90
51733;DHT22;39139;53.144;6.244;2022-11-22T15:47:43;6.70;99.90
51733;DHT22;39139;53.144;6.244;2022-11-22T15:50:18;6.80;99.90
51733;DHT22;39139;53.144;6.244;2022-11-22T15:52:54;6.80;99.90
51733;DHT22;39139;53.144;6.244;2022-11-22T15:55:22;6.80;99.90
51733;DHT22;39139;53.144;6.244;2022-11-22T15:57:53;6.80;99.90
51733;DHT22;39139;53.144;6.244;2022-11-22T16:00:21;6.80;99.90
51733;DHT22;39139;53.144;6.244;2022-11-22T16:02:50;6.80;99.90
51733;DHT22;39139;53.144;6.244;2022-11-22T16:05:37;6.80;99.90
51733;DHT22;39139;53.144;6.244;2022-11-22T16:08:04;6.80;99.90
51733;DHT22;39139;53.144;6.244;2022-11-22T16:10:35;6.70;99.90
51733;DHT22;39139;53.144;6.244;2022-11-22T16:13:23;6.70;99.90
51733;DHT22;39139;53.144;6.244;2022-11-22T16:18:35;6.70;99.90
51733;DHT22;39139;53.144;6.244;2022-11-22T16:21:02;6.70;99.90
51733;DHT22;39139;53.144;6.244;2022-11-22T16:23:29;6.70;99.90
51733;DHT22;39139;53.144;6.244;2022-11-22T16:26:24;6.70;99.90
51733;DHT22;39139;53.144;6.244;2022-11-22T16:28:54;6.70;99.90
51733;DHT22;39139;53.144;6.244;2022-11-22T16:33:53;6.70;99.90
51733;DHT22;39139;53.144;6.244;2022-11-22T16:36:20;6.70;99.90
51733;DHT22;39139;53.144;6.244;2022-11-22T16:38:46;6.70;99.90
51733;DHT22;39139;53.144;6.244;2022-11-22T16:41:24;6.70;99.90
51733;DHT22;39139;53.144;6.244;2022-11-22T16:43:52;6.70;99.90
51733;DHT22;39139;53.144;6.244;2022-11-22T16:46:19;6.70;99.90
51733;DHT22;39139;53.144;6.244;2022-11-22T16:48:45;6.70;99.90
51733;DHT22;39139;53.144;6.244;2022-11-22T16:51:18;6.70;99.90
51733;DHT22;39139;53.144;6.244;2022-11-22T16:53:47;6.70;99.90
51733;DHT22;39139;53.144;6.244;2022-11-22T16:56:24;6.70;99.90
51733;DHT22;39139;53.144;6.244;2022-11-22T16:58:51;6.70;99.90
51733;DHT22;39139;53.144;6.244;2022-11-22T17:01:23;6.70;99.90
51733;DHT22;39139;53.144;6.244;2022-11-22T17:03:52;6.70;99.90
51733;DHT22;39139;53.144;6.244;2022-11-22T17:06:21;6.70;99.90
51733;DHT22;39139;53.144;6.244;2022-11-22T17:08:49;6.70;99.90
51733;DHT22;39139;53.144;6.244;2022-11-22T17:11:16;6.70;99.90
51733;DHT22;39139;53.144;6.244;2022-11-22T17:13:43;6.70;99.90
51733;DHT22;39139;53.144;6.244;2022-11-22T17:16:09;6.70;99.90
51733;DHT22;39139;53.144;6.244;2022-11-22T17:18:36;6.80;99.90
51733;DHT22;39139;53.144;6.244;2022-11-22T17:21:03;6.70;99.90
51733;DHT22;39139;53.144;6.244;2022-11-22T17:23:34;6.70;99.90
51733;DHT22;39139;53.144;6.244;2022-11-22T17:26:02;6.80;99.90
51733;DHT22;39139;53.144;6.244;2022-11-22T17:28:27;6.80;99.90
51733;DHT22;39139;53.144;6.244;2022-11-22T17:30:56;6.80;99.90
51733;DHT22;39139;53.144;6.244;2022-11-22T17:33:22;6.70;99.90
51733;DHT22;39139;53.144;6.244;2022-11-22T17:35:49;6.80;99.90
51733;DHT22;39139;53.144;6.244;2022-11-22T17:38:15;6.80;99.90
51733;DHT22;39139;53.144;6.244;2022-11-22T17:40:41;6.80;99.90
51733;DHT22;39139;53.144;6.244;2022-11-22T17:43:09;6.80;99.90
51733;DHT22;39139;53.144;6.244;2022-11-22T17:45:39;6.80;99.90
51733;DHT22;39139;53.144;6.244;2022-11-22T17:48:10;7.00;99.90
51733;DHT22;39139;53.144;6.244;2022-11-22T17:50:36;6.80;99.90
51733;DHT22;39139;53.144;6.244;2022-11-22T17:53:01;6.90;99.90
51733;DHT22;39139;53.144;6.244;2022-11-22T17:55:27;6.90;99.90
51733;DHT22;39139;53.144;6.244;2022-11-22T17:57:53;6.80;99.90
51733;DHT22;39139;53.144;6.244;2022-11-22T18:00:19;7.00;99.90
51733;DHT22;39139;53.144;6.244;2022-11-22T18:02:44;6.80;99.90
51733;DHT22;39139;53.144;6.244;2022-11-22T18:05:11;6.80;99.90
51733;DHT22;39139;53.144;6.244;2022-11-22T18:07:36;6.90;99.90
51733;DHT22;39139;53.144;6.244;2022-11-22T18:10:08;6.80;99.90